Saujil, Argentina
Current Conditions -  °F | °C
As of 5:00 AM on Saturday 20 Dec 2014 (Local Time) from SANT Reporting Station
Clear Clear  
Wind Chill: 75°   Ceiling: Unl
Heat Index: 75°   Visibility: 6mi
Dew Point: 68°   Wind: 9mph
Humidity: 78%   Direction: 360°N
Pressure: 29.47"   Gusts: NA
Location:  28.18°S, 66.23°W
Report Text: SANT 200800Z 36008KT CAVOK 24/20 Q0998
Loading
Personal Weather Stations






























Interactive Weather Map New forecast layout! Learn more

10-Day Weather Forecast

Advertisements
Track Severe Weather on mobile